Gulf, North Carolina
Current Conditions -  °F | °C
As of 10:55 PM on Wednesday 22 Oct 2014 (Local Time) from KTTA Reporting Station
Clear Clear  
Wind Chill: 52°   Ceiling: Unl
Heat Index: 52°   Visibility: 10mi
Dew Point: 42°   Wind: 3mph
Humidity: 68%   Direction: 280°W
Pressure: 30.05"   Gusts: NA
Location:  35.56°N, 79.28°W
Report Text: KTTA 230255Z AUTO 28003KT 10SM CLR 11/06 A3005 RMK AO2 T01130056
Loading
Personal Weather Stations






























Interactive Weather Map
Tropical Storm Tracking
New forecast layout! Learn more

10-Day Weather Forecast

Advertisements
Track Severe Weather on mobile